sensor_id;sensor_type;location;lat;lon;timestamp;temperature;humidity
10431;DHT22;5262;59.958;17.726;2023-09-07T00:01:54;9.50;99.90
10431;DHT22;5262;59.958;17.726;2023-09-07T00:04:20;9.50;99.90
10431;DHT22;5262;59.958;17.726;2023-09-07T00:06:46;9.70;99.90
10431;DHT22;5262;59.958;17.726;2023-09-07T00:09:12;9.70;99.90
10431;DHT22;5262;59.958;17.726;2023-09-07T00:11:38;10.00;99.90
10431;DHT22;5262;59.958;17.726;2023-09-07T00:14:04;10.30;99.90
10431;DHT22;5262;59.958;17.726;2023-09-07T00:16:33;10.30;99.90
10431;DHT22;5262;59.958;17.726;2023-09-07T00:19:01;10.20;99.90
10431;DHT22;5262;59.958;17.726;2023-09-07T00:21:28;10.40;99.90
10431;DHT22;5262;59.958;17.726;2023-09-07T00:23:53;10.50;99.90
10431;DHT22;5262;59.958;17.726;2023-09-07T00:26:20;10.40;99.90
10431;DHT22;5262;59.958;17.726;2023-09-07T00:28:46;10.50;99.90
10431;DHT22;5262;59.958;17.726;2023-09-07T00:31:12;10.60;99.90
10431;DHT22;5262;59.958;17.726;2023-09-07T00:33:37;10.60;99.90
10431;DHT22;5262;59.958;17.726;2023-09-07T00:36:03;10.80;99.90
10431;DHT22;5262;59.958;17.726;2023-09-07T00:38:29;10.80;99.90
10431;DHT22;5262;59.958;17.726;2023-09-07T00:40:55;10.70;99.90
10431;DHT22;5262;59.958;17.726;2023-09-07T00:43:20;10.80;99.90
10431;DHT22;5262;59.958;17.726;2023-09-07T00:45:46;10.80;99.90
10431;DHT22;5262;59.958;17.726;2023-09-07T00:48:12;10.80;99.90
10431;DHT22;5262;59.958;17.726;2023-09-07T00:50:39;10.80;99.90
10431;DHT22;5262;59.958;17.726;2023-09-07T00:53:05;10.80;99.90
10431;DHT22;5262;59.958;17.726;2023-09-07T00:55:33;10.80;99.90
10431;DHT22;5262;59.958;17.726;2023-09-07T00:58:00;10.70;99.90
10431;DHT22;5262;59.958;17.726;2023-09-07T01:00:26;10.60;99.90
10431;DHT22;5262;59.958;17.726;2023-09-07T01:02:52;10.60;99.90
10431;DHT22;5262;59.958;17.726;2023-09-07T01:05:19;10.70;99.90
10431;DHT22;5262;59.958;17.726;2023-09-07T01:07:49;10.70;99.90
10431;DHT22;5262;59.958;17.726;2023-09-07T01:10:17;10.70;99.90
10431;DHT22;5262;59.958;17.726;2023-09-07T01:12:44;10.80;99.90
10431;DHT22;5262;59.958;17.726;2023-09-07T01:15:10;10.70;99.90
10431;DHT22;5262;59.958;17.726;2023-09-07T01:17:36;10.60;99.90
10431;DHT22;5262;59.958;17.726;2023-09-07T01:20:05;10.60;99.90
10431;DHT22;5262;59.958;17.726;2023-09-07T01:22:33;10.70;99.90
10431;DHT22;5262;59.958;17.726;2023-09-07T01:24:59;10.70;99.90
10431;DHT22;5262;59.958;17.726;2023-09-07T01:27:25;10.70;99.90
10431;DHT22;5262;59.958;17.726;2023-09-07T01:29:51;10.70;99.90
10431;DHT22;5262;59.958;17.726;2023-09-07T01:32:17;10.70;99.90
10431;DHT22;5262;59.958;17.726;2023-09-07T01:34:43;10.70;99.90
10431;DHT22;5262;59.958;17.726;2023-09-07T01:37:09;10.60;99.90
10431;DHT22;5262;59.958;17.726;2023-09-07T01:39:34;10.50;99.90
10431;DHT22;5262;59.958;17.726;2023-09-07T01:42:00;10.50;99.90
10431;DHT22;5262;59.958;17.726;2023-09-07T01:44:26;10.40;99.90
10431;DHT22;5262;59.958;17.726;2023-09-07T01:46:52;10.30;99.90
10431;DHT22;5262;59.958;17.726;2023-09-07T01:49:18;10.20;99.90
10431;DHT22;5262;59.958;17.726;2023-09-07T01:51:43;10.30;99.90
10431;DHT22;5262;59.958;17.726;2023-09-07T01:54:09;10.30;99.90
10431;DHT22;5262;59.958;17.726;2023-09-07T01:56:35;10.10;99.90
10431;DHT22;5262;59.958;17.726;2023-09-07T01:59:01;10.00;99.90
10431;DHT22;5262;59.958;17.726;2023-09-07T02:01:29;10.20;99.90
10431;DHT22;5262;59.958;17.726;2023-09-07T02:03:55;10.00;99.90
10431;DHT22;5262;59.958;17.726;2023-09-07T02:06:21;9.90;99.90
10431;DHT22;5262;59.958;17.726;2023-09-07T02:08:47;9.80;99.90
10431;DHT22;5262;59.958;17.726;2023-09-07T02:11:12;10.00;99.90
10431;DHT22;5262;59.958;17.726;2023-09-07T02:13:41;10.10;99.90
10431;DHT22;5262;59.958;17.726;2023-09-07T02:16:07;10.20;99.90
10431;DHT22;5262;59.958;17.726;2023-09-07T02:18:33;10.10;99.90
10431;DHT22;5262;59.958;17.726;2023-09-07T02:21:05;10.20;99.90
10431;DHT22;5262;59.958;17.726;2023-09-07T02:23:31;10.20;99.90
10431;DHT22;5262;59.958;17.726;2023-09-07T02:25:58;10.30;99.90
10431;DHT22;5262;59.958;17.726;2023-09-07T02:28:24;10.30;99.90
10431;DHT22;5262;59.958;17.726;2023-09-07T02:30:50;10.30;99.90
10431;DHT22;5262;59.958;17.726;2023-09-07T02:33:16;10.30;99.90
10431;DHT22;5262;59.958;17.726;2023-09-07T02:35:41;10.20;99.90
10431;DHT22;5262;59.958;17.726;2023-09-07T02:38:07;10.20;99.90
10431;DHT22;5262;59.958;17.726;2023-09-07T02:40:33;10.30;99.90
10431;DHT22;5262;59.958;17.726;2023-09-07T02:43:04;10.20;99.90
10431;DHT22;5262;59.958;17.726;2023-09-07T02:45:30;10.20;99.90
10431;DHT22;5262;59.958;17.726;2023-09-07T02:47:56;10.10;99.90
10431;DHT22;5262;59.958;17.726;2023-09-07T02:50:22;10.10;99.90
10431;DHT22;5262;59.958;17.726;2023-09-07T02:52:48;10.00;99.90
10431;DHT22;5262;59.958;17.726;2023-09-07T02:55:13;10.20;99.90
10431;DHT22;5262;59.958;17.726;2023-09-07T02:57:39;10.20;99.90
10431;DHT22;5262;59.958;17.726;2023-09-07T03:00:05;9.90;99.90
10431;DHT22;5262;59.958;17.726;2023-09-07T03:02:35;9.80;99.90
10431;DHT22;5262;59.958;17.726;2023-09-07T03:05:04;9.70;99.90
10431;DHT22;5262;59.958;17.726;2023-09-07T03:07:32;9.70;99.90
10431;DHT22;5262;59.958;17.726;2023-09-07T03:09:58;9.70;99.90
10431;DHT22;5262;59.958;17.726;2023-09-07T03:12:23;9.60;99.90
10431;DHT22;5262;59.958;17.726;2023-09-07T03:14:49;9.60;99.90
10431;DHT22;5262;59.958;17.726;2023-09-07T03:17:16;9.70;99.90
10431;DHT22;5262;59.958;17.726;2023-09-07T03:19:42;9.60;99.90
10431;DHT22;5262;59.958;17.726;2023-09-07T03:22:08;9.60;99.90
10431;DHT22;5262;59.958;17.726;2023-09-07T03:24:34;9.60;99.90
10431;DHT22;5262;59.958;17.726;2023-09-07T03:27:00;9.50;99.90
10431;DHT22;5262;59.958;17.726;2023-09-07T03:29:25;9.40;99.90
10431;DHT22;5262;59.958;17.726;2023-09-07T03:31:51;9.30;99.90
10431;DHT22;5262;59.958;17.726;2023-09-07T03:34:16;9.30;99.90
10431;DHT22;5262;59.958;17.726;2023-09-07T03:36:42;9.20;99.90
10431;DHT22;5262;59.958;17.726;2023-09-07T03:39:08;9.20;99.90
10431;DHT22;5262;59.958;17.726;2023-09-07T03:41:36;9.20;99.90
10431;DHT22;5262;59.958;17.726;2023-09-07T03:44:02;9.10;99.90
10431;DHT22;5262;59.958;17.726;2023-09-07T03:46:28;9.10;99.90
10431;DHT22;5262;59.958;17.726;2023-09-07T03:48:53;9.10;99.90
10431;DHT22;5262;59.958;17.726;2023-09-07T03:51:19;9.10;99.90
10431;DHT22;5262;59.958;17.726;2023-09-07T03:53:45;9.10;99.90
10431;DHT22;5262;59.958;17.726;2023-09-07T03:56:11;9.10;99.90
10431;DHT22;5262;59.958;17.726;2023-09-07T03:58:36;9.10;99.90
10431;DHT22;5262;59.958;17.726;2023-09-07T04:01:02;9.00;99.90
10431;DHT22;5262;59.958;17.726;2023-09-07T04:03:28;9.00;99.90
10431;DHT22;5262;59.958;17.726;2023-09-07T04:05:53;8.90;99.90
10431;DHT22;5262;59.958;17.726;2023-09-07T04:08:19;8.90;99.90
10431;DHT22;5262;59.958;17.726;2023-09-07T04:10:44;9.00;99.90
10431;DHT22;5262;59.958;17.726;2023-09-07T04:13:10;9.10;99.90
10431;DHT22;5262;59.958;17.726;2023-09-07T04:15:45;9.10;99.90
10431;DHT22;5262;59.958;17.726;2023-09-07T04:18:12;9.30;99.90
10431;DHT22;5262;59.958;17.726;2023-09-07T04:20:43;9.30;99.90
10431;DHT22;5262;59.958;17.726;2023-09-07T04:23:09;9.40;99.90
10431;DHT22;5262;59.958;17.726;2023-09-07T04:25:35;9.60;99.90
10431;DHT22;5262;59.958;17.726;2023-09-07T04:28:00;9.80;99.90
10431;DHT22;5262;59.958;17.726;2023-09-07T04:30:26;9.90;99.90
10431;DHT22;5262;59.958;17.726;2023-09-07T04:32:52;10.00;99.90
10431;DHT22;5262;59.958;17.726;2023-09-07T04:35:18;10.20;99.90
10431;DHT22;5262;59.958;17.726;2023-09-07T04:37:44;10.20;99.90
10431;DHT22;5262;59.958;17.726;2023-09-07T04:40:10;10.30;99.90
10431;DHT22;5262;59.958;17.726;2023-09-07T04:42:36;10.50;99.90
10431;DHT22;5262;59.958;17.726;2023-09-07T04:45:04;10.60;99.90
10431;DHT22;5262;59.958;17.726;2023-09-07T04:47:30;10.80;99.90
10431;DHT22;5262;59.958;17.726;2023-09-07T04:49:56;10.90;99.90
10431;DHT22;5262;59.958;17.726;2023-09-07T04:52:21;11.10;99.90
10431;DHT22;5262;59.958;17.726;2023-09-07T04:54:47;11.20;99.90
10431;DHT22;5262;59.958;17.726;2023-09-07T04:57:16;11.30;99.90
10431;DHT22;5262;59.958;17.726;2023-09-07T04:59:42;11.40;99.90
10431;DHT22;5262;59.958;17.726;2023-09-07T05:02:08;11.50;99.90
10431;DHT22;5262;59.958;17.726;2023-09-07T05:04:33;11.60;99.90
10431;DHT22;5262;59.958;17.726;2023-09-07T05:06:59;11.70;99.90
10431;DHT22;5262;59.958;17.726;2023-09-07T05:09:24;11.80;99.90
10431;DHT22;5262;59.958;17.726;2023-09-07T05:11:51;11.80;99.90
10431;DHT22;5262;59.958;17.726;2023-09-07T05:14:16;11.90;99.90
10431;DHT22;5262;59.958;17.726;2023-09-07T05:16:43;12.00;99.90
10431;DHT22;5262;59.958;17.726;2023-09-07T05:19:09;12.10;99.90
10431;DHT22;5262;59.958;17.726;2023-09-07T05:21:35;12.10;99.90
10431;DHT22;5262;59.958;17.726;2023-09-07T05:24:00;12.20;99.90
10431;DHT22;5262;59.958;17.726;2023-09-07T05:26:26;12.20;99.90
10431;DHT22;5262;59.958;17.726;2023-09-07T05:28:52;12.30;99.90
10431;DHT22;5262;59.958;17.726;2023-09-07T05:31:17;12.40;99.90
10431;DHT22;5262;59.958;17.726;2023-09-07T05:33:43;12.40;99.90
10431;DHT22;5262;59.958;17.726;2023-09-07T05:36:09;12.50;99.90
10431;DHT22;5262;59.958;17.726;2023-09-07T05:38:34;12.60;99.90
10431;DHT22;5262;59.958;17.726;2023-09-07T05:41:00;12.70;99.90
10431;DHT22;5262;59.958;17.726;2023-09-07T05:43:26;12.80;99.90
10431;DHT22;5262;59.958;17.726;2023-09-07T05:45:51;12.90;99.90
10431;DHT22;5262;59.958;17.726;2023-09-07T05:48:17;13.00;99.90
10431;DHT22;5262;59.958;17.726;2023-09-07T05:50:44;13.10;99.90
10431;DHT22;5262;59.958;17.726;2023-09-07T05:53:09;13.10;99.90
10431;DHT22;5262;59.958;17.726;2023-09-07T05:55:35;13.10;99.90
10431;DHT22;5262;59.958;17.726;2023-09-07T05:58:05;13.30;99.90
10431;DHT22;5262;59.958;17.726;2023-09-07T06:00:31;13.30;99.90
10431;DHT22;5262;59.958;17.726;2023-09-07T06:02:57;13.40;99.90
10431;DHT22;5262;59.958;17.726;2023-09-07T06:05:22;13.40;99.90
10431;DHT22;5262;59.958;17.726;2023-09-07T06:07:48;13.50;99.90
10431;DHT22;5262;59.958;17.726;2023-09-07T06:10:14;13.60;99.90
10431;DHT22;5262;59.958;17.726;2023-09-07T06:12:40;13.80;99.90
10431;DHT22;5262;59.958;17.726;2023-09-07T06:15:07;13.80;99.90
10431;DHT22;5262;59.958;17.726;2023-09-07T06:17:32;13.90;99.90
10431;DHT22;5262;59.958;17.726;2023-09-07T06:19:58;14.00;99.90
10431;DHT22;5262;59.958;17.726;2023-09-07T06:22:24;14.10;99.90
10431;DHT22;5262;59.958;17.726;2023-09-07T06:24:49;14.30;99.90
10431;DHT22;5262;59.958;17.726;2023-09-07T06:27:15;14.30;99.90
10431;DHT22;5262;59.958;17.726;2023-09-07T06:29:41;14.40;99.90
10431;DHT22;5262;59.958;17.726;2023-09-07T06:32:06;14.50;99.90
10431;DHT22;5262;59.958;17.726;2023-09-07T06:34:32;14.60;99.90
10431;DHT22;5262;59.958;17.726;2023-09-07T06:36:58;14.70;99.90
10431;DHT22;5262;59.958;17.726;2023-09-07T06:39:23;14.70;99.90
10431;DHT22;5262;59.958;17.726;2023-09-07T06:41:49;14.90;99.90
10431;DHT22;5262;59.958;17.726;2023-09-07T06:44:14;15.30;99.90
10431;DHT22;5262;59.958;17.726;2023-09-07T06:46:40;15.50;99.90
10431;DHT22;5262;59.958;17.726;2023-09-07T06:49:06;15.60;99.90
10431;DHT22;5262;59.958;17.726;2023-09-07T06:51:33;15.60;99.90
10431;DHT22;5262;59.958;17.726;2023-09-07T06:53:59;15.80;99.90
10431;DHT22;5262;59.958;17.726;2023-09-07T06:56:25;15.80;99.90
10431;DHT22;5262;59.958;17.726;2023-09-07T06:58:52;16.00;99.90
10431;DHT22;5262;59.958;17.726;2023-09-07T07:01:17;16.00;99.90
10431;DHT22;5262;59.958;17.726;2023-09-07T07:03:43;16.10;99.90
10431;DHT22;5262;59.958;17.726;2023-09-07T07:06:09;16.10;99.90
10431;DHT22;5262;59.958;17.726;2023-09-07T07:08:35;16.20;99.90
10431;DHT22;5262;59.958;17.726;2023-09-07T07:11:01;16.30;99.90
10431;DHT22;5262;59.958;17.726;2023-09-07T07:13:26;16.50;99.90
10431;DHT22;5262;59.958;17.726;2023-09-07T07:15:52;16.60;99.90
10431;DHT22;5262;59.958;17.726;2023-09-07T07:18:18;16.70;99.90
10431;DHT22;5262;59.958;17.726;2023-09-07T07:20:44;16.90;99.90
10431;DHT22;5262;59.958;17.726;2023-09-07T07:23:10;17.30;99.90
10431;DHT22;5262;59.958;17.726;2023-09-07T07:25:36;17.50;99.90
10431;DHT22;5262;59.958;17.726;2023-09-07T07:28:06;17.50;99.90
10431;DHT22;5262;59.958;17.726;2023-09-07T07:30:36;17.60;99.90
10431;DHT22;5262;59.958;17.726;2023-09-07T07:33:05;17.70;99.90
10431;DHT22;5262;59.958;17.726;2023-09-07T07:35:35;17.80;99.90
10431;DHT22;5262;59.958;17.726;2023-09-07T07:38:01;17.70;99.90
10431;DHT22;5262;59.958;17.726;2023-09-07T07:40:27;18.00;99.90
10431;DHT22;5262;59.958;17.726;2023-09-07T07:42:53;18.10;99.90
10431;DHT22;5262;59.958;17.726;2023-09-07T07:45:19;18.20;99.90
10431;DHT22;5262;59.958;17.726;2023-09-07T07:47:46;18.40;99.90
10431;DHT22;5262;59.958;17.726;2023-09-07T07:50:12;18.30;99.90
10431;DHT22;5262;59.958;17.726;2023-09-07T07:52:38;18.40;99.90
10431;DHT22;5262;59.958;17.726;2023-09-07T07:55:03;19.40;99.90
10431;DHT22;5262;59.958;17.726;2023-09-07T07:57:29;20.30;99.90
10431;DHT22;5262;59.958;17.726;2023-09-07T07:59:56;21.30;99.90
10431;DHT22;5262;59.958;17.726;2023-09-07T08:02:22;21.80;99.90
10431;DHT22;5262;59.958;17.726;2023-09-07T08:04:48;21.30;99.90
10431;DHT22;5262;59.958;17.726;2023-09-07T08:07:13;22.20;99.90
10431;DHT22;5262;59.958;17.726;2023-09-07T08:09:39;22.80;99.90
10431;DHT22;5262;59.958;17.726;2023-09-07T08:12:05;23.10;99.90
10431;DHT22;5262;59.958;17.726;2023-09-07T08:14:31;22.80;99.90
10431;DHT22;5262;59.958;17.726;2023-09-07T08:16:58;22.80;99.90
10431;DHT22;5262;59.958;17.726;2023-09-07T08:19:24;22.40;99.90
10431;DHT22;5262;59.958;17.726;2023-09-07T08:21:50;22.40;99.90
10431;DHT22;5262;59.958;17.726;2023-09-07T08:24:16;23.30;99.90
10431;DHT22;5262;59.958;17.726;2023-09-07T08:26:42;24.70;99.90
10431;DHT22;5262;59.958;17.726;2023-09-07T08:29:09;25.80;99.90
10431;DHT22;5262;59.958;17.726;2023-09-07T08:31:38;26.20;98.90
10431;DHT22;5262;59.958;17.726;2023-09-07T08:34:07;25.80;97.30
10431;DHT22;5262;59.958;17.726;2023-09-07T08:36:37;25.90;97.50
10431;DHT22;5262;59.958;17.726;2023-09-07T08:39:04;26.60;96.60
10431;DHT22;5262;59.958;17.726;2023-09-07T08:41:37;27.40;95.10
10431;DHT22;5262;59.958;17.726;2023-09-07T08:44:19;28.00;93.20
10431;DHT22;5262;59.958;17.726;2023-09-07T08:46:45;27.60;92.90
10431;DHT22;5262;59.958;17.726;2023-09-07T08:49:12;27.40;91.70
10431;DHT22;5262;59.958;17.726;2023-09-07T08:51:38;27.50;90.20
10431;DHT22;5262;59.958;17.726;2023-09-07T08:54:05;27.70;90.70
10431;DHT22;5262;59.958;17.726;2023-09-07T08:56:33;27.80;88.90
10431;DHT22;5262;59.958;17.726;2023-09-07T08:58:59;27.80;90.90
10431;DHT22;5262;59.958;17.726;2023-09-07T09:01:25;26.70;90.70
10431;DHT22;5262;59.958;17.726;2023-09-07T09:03:51;27.10;88.30
10431;DHT22;5262;59.958;17.726;2023-09-07T09:06:19;26.90;90.00
10431;DHT22;5262;59.958;17.726;2023-09-07T09:08:46;27.10;89.00
10431;DHT22;5262;59.958;17.726;2023-09-07T09:11:14;27.20;89.70
10431;DHT22;5262;59.958;17.726;2023-09-07T09:13:40;27.70;85.80
10431;DHT22;5262;59.958;17.726;2023-09-07T09:16:06;27.30;86.30
10431;DHT22;5262;59.958;17.726;2023-09-07T09:18:32;27.80;84.70
10431;DHT22;5262;59.958;17.726;2023-09-07T09:20:58;27.00;84.40
10431;DHT22;5262;59.958;17.726;2023-09-07T09:23:33;27.00;85.90
10431;DHT22;5262;59.958;17.726;2023-09-07T09:26:00;27.20;85.30
10431;DHT22;5262;59.958;17.726;2023-09-07T09:28:26;27.60;85.20
10431;DHT22;5262;59.958;17.726;2023-09-07T09:30:58;27.90;82.80
10431;DHT22;5262;59.958;17.726;2023-09-07T09:33:25;28.40;81.40
10431;DHT22;5262;59.958;17.726;2023-09-07T09:35:52;28.90;79.20
10431;DHT22;5262;59.958;17.726;2023-09-07T09:38:19;28.80;79.40
10431;DHT22;5262;59.958;17.726;2023-09-07T09:40:44;28.40;78.40
10431;DHT22;5262;59.958;17.726;2023-09-07T09:43:12;29.20;76.90
10431;DHT22;5262;59.958;17.726;2023-09-07T09:45:38;27.60;78.80
10431;DHT22;5262;59.958;17.726;2023-09-07T09:48:05;28.80;78.00
10431;DHT22;5262;59.958;17.726;2023-09-07T09:50:31;28.20;77.50
10431;DHT22;5262;59.958;17.726;2023-09-07T09:52:58;27.60;77.90
10431;DHT22;5262;59.958;17.726;2023-09-07T09:55:24;27.60;78.60
10431;DHT22;5262;59.958;17.726;2023-09-07T09:57:50;28.10;76.90
10431;DHT22;5262;59.958;17.726;2023-09-07T10:00:16;28.00;76.40
10431;DHT22;5262;59.958;17.726;2023-09-07T10:02:44;26.70;78.60
10431;DHT22;5262;59.958;17.726;2023-09-07T10:05:11;25.90;82.50
10431;DHT22;5262;59.958;17.726;2023-09-07T10:07:51;25.30;84.00
10431;DHT22;5262;59.958;17.726;2023-09-07T10:10:19;26.20;84.00
10431;DHT22;5262;59.958;17.726;2023-09-07T10:12:52;26.60;81.50
10431;DHT22;5262;59.958;17.726;2023-09-07T10:15:25;26.50;83.30
10431;DHT22;5262;59.958;17.726;2023-09-07T10:18:12;27.60;81.50
10431;DHT22;5262;59.958;17.726;2023-09-07T10:20:56;27.70;80.10
10431;DHT22;5262;59.958;17.726;2023-09-07T10:23:39;26.10;82.90
10431;DHT22;5262;59.958;17.726;2023-09-07T10:26:16;25.50;87.60
10431;DHT22;5262;59.958;17.726;2023-09-07T10:28:45;25.50;87.40
10431;DHT22;5262;59.958;17.726;2023-09-07T10:31:18;26.40;86.10
10431;DHT22;5262;59.958;17.726;2023-09-07T10:33:45;26.80;82.40
10431;DHT22;5262;59.958;17.726;2023-09-07T10:36:25;25.70;84.70
10431;DHT22;5262;59.958;17.726;2023-09-07T10:38:51;25.10;86.30
10431;DHT22;5262;59.958;17.726;2023-09-07T10:41:18;24.50;88.90
10431;DHT22;5262;59.958;17.726;2023-09-07T10:43:52;23.80;90.60
10431;DHT22;5262;59.958;17.726;2023-09-07T10:46:23;23.30;91.70
10431;DHT22;5262;59.958;17.726;2023-09-07T10:48:53;23.30;91.90
10431;DHT22;5262;59.958;17.726;2023-09-07T10:51:19;23.40;92.40
10431;DHT22;5262;59.958;17.726;2023-09-07T10:53:45;23.70;91.90
10431;DHT22;5262;59.958;17.726;2023-09-07T10:56:11;23.60;91.90
10431;DHT22;5262;59.958;17.726;2023-09-07T10:58:37;23.40;92.00
10431;DHT22;5262;59.958;17.726;2023-09-07T11:01:08;23.20;93.20
10431;DHT22;5262;59.958;17.726;2023-09-07T11:03:37;22.70;93.50
10431;DHT22;5262;59.958;17.726;2023-09-07T11:06:13;22.60;94.20
10431;DHT22;5262;59.958;17.726;2023-09-07T11:08:40;22.30;95.40
10431;DHT22;5262;59.958;17.726;2023-09-07T11:11:05;22.30;96.10
10431;DHT22;5262;59.958;17.726;2023-09-07T11:13:31;22.10;96.80
10431;DHT22;5262;59.958;17.726;2023-09-07T11:15:58;22.00;96.20
10431;DHT22;5262;59.958;17.726;2023-09-07T11:18:25;21.60;97.00
10431;DHT22;5262;59.958;17.726;2023-09-07T11:20:52;21.40;98.60
10431;DHT22;5262;59.958;17.726;2023-09-07T11:23:20;21.50;98.00
10431;DHT22;5262;59.958;17.726;2023-09-07T11:25:49;21.70;97.90
10431;DHT22;5262;59.958;17.726;2023-09-07T11:28:17;21.80;97.70
10431;DHT22;5262;59.958;17.726;2023-09-07T11:30:54;21.80;98.10
10431;DHT22;5262;59.958;17.726;2023-09-07T11:33:21;21.60;98.20
10431;DHT22;5262;59.958;17.726;2023-09-07T11:35:47;21.40;98.60
10431;DHT22;5262;59.958;17.726;2023-09-07T11:38:14;21.40;99.70
10431;DHT22;5262;59.958;17.726;2023-09-07T11:40:40;21.40;99.10
10431;DHT22;5262;59.958;17.726;2023-09-07T11:43:13;21.40;99.30
10431;DHT22;5262;59.958;17.726;2023-09-07T11:45:46;21.40;99.90
10431;DHT22;5262;59.958;17.726;2023-09-07T11:48:12;21.40;99.80
10431;DHT22;5262;59.958;17.726;2023-09-07T11:50:39;21.50;99.70
10431;DHT22;5262;59.958;17.726;2023-09-07T11:53:05;21.70;99.90
10431;DHT22;5262;59.958;17.726;2023-09-07T11:55:32;22.00;99.50
10431;DHT22;5262;59.958;17.726;2023-09-07T11:57:58;22.10;98.80
10431;DHT22;5262;59.958;17.726;2023-09-07T12:00:24;22.20;98.80
10431;DHT22;5262;59.958;17.726;2023-09-07T12:02:50;22.30;99.60
10431;DHT22;5262;59.958;17.726;2023-09-07T12:05:15;22.20;98.80
10431;DHT22;5262;59.958;17.726;2023-09-07T12:07:43;22.10;99.10
10431;DHT22;5262;59.958;17.726;2023-09-07T12:10:09;22.10;99.10
10431;DHT22;5262;59.958;17.726;2023-09-07T12:12:39;21.90;99.90
10431;DHT22;5262;59.958;17.726;2023-09-07T12:15:05;21.90;99.80
10431;DHT22;5262;59.958;17.726;2023-09-07T12:17:32;21.50;99.70
10431;DHT22;5262;59.958;17.726;2023-09-07T12:19:58;21.20;99.90
10431;DHT22;5262;59.958;17.726;2023-09-07T12:22:23;20.90;99.90
10431;DHT22;5262;59.958;17.726;2023-09-07T12:24:49;20.80;99.90
10431;DHT22;5262;59.958;17.726;2023-09-07T12:27:15;20.70;99.90
10431;DHT22;5262;59.958;17.726;2023-09-07T12:29:41;20.70;99.90
10431;DHT22;5262;59.958;17.726;2023-09-07T12:32:07;20.70;99.90
10431;DHT22;5262;59.958;17.726;2023-09-07T12:34:32;20.90;99.90
10431;DHT22;5262;59.958;17.726;2023-09-07T12:36:58;21.00;99.90
10431;DHT22;5262;59.958;17.726;2023-09-07T12:39:24;21.30;99.90
10431;DHT22;5262;59.958;17.726;2023-09-07T12:41:50;21.50;99.90
10431;DHT22;5262;59.958;17.726;2023-09-07T12:44:15;21.80;99.90
10431;DHT22;5262;59.958;17.726;2023-09-07T12:46:43;21.60;99.90
10431;DHT22;5262;59.958;17.726;2023-09-07T12:49:09;21.60;99.90
10431;DHT22;5262;59.958;17.726;2023-09-07T12:51:35;21.60;99.90
10431;DHT22;5262;59.958;17.726;2023-09-07T12:54:01;21.50;99.90
10431;DHT22;5262;59.958;17.726;2023-09-07T12:56:26;21.50;99.90
10431;DHT22;5262;59.958;17.726;2023-09-07T12:58:53;21.50;99.90
10431;DHT22;5262;59.958;17.726;2023-09-07T13:01:18;21.70;99.90
10431;DHT22;5262;59.958;17.726;2023-09-07T13:03:44;21.90;99.90
10431;DHT22;5262;59.958;17.726;2023-09-07T13:06:10;22.00;99.90
10431;DHT22;5262;59.958;17.726;2023-09-07T13:08:36;21.90;99.90
10431;DHT22;5262;59.958;17.726;2023-09-07T13:11:02;21.50;99.90
10431;DHT22;5262;59.958;17.726;2023-09-07T13:13:27;21.40;99.90
10431;DHT22;5262;59.958;17.726;2023-09-07T13:15:58;21.20;99.90
10431;DHT22;5262;59.958;17.726;2023-09-07T13:18:24;21.20;99.90
10431;DHT22;5262;59.958;17.726;2023-09-07T13:20:51;21.20;99.90
10431;DHT22;5262;59.958;17.726;2023-09-07T13:23:20;21.20;99.90
10431;DHT22;5262;59.958;17.726;2023-09-07T13:25:46;21.10;99.90
10431;DHT22;5262;59.958;17.726;2023-09-07T13:28:11;21.20;99.90
10431;DHT22;5262;59.958;17.726;2023-09-07T13:30:37;21.30;99.90
10431;DHT22;5262;59.958;17.726;2023-09-07T13:33:03;21.30;99.90
10431;DHT22;5262;59.958;17.726;2023-09-07T13:35:28;21.20;99.90
10431;DHT22;5262;59.958;17.726;2023-09-07T13:37:55;21.20;99.90
10431;DHT22;5262;59.958;17.726;2023-09-07T13:40:20;21.10;99.90
10431;DHT22;5262;59.958;17.726;2023-09-07T13:42:49;21.20;99.90
10431;DHT22;5262;59.958;17.726;2023-09-07T13:45:15;21.40;99.90
10431;DHT22;5262;59.958;17.726;2023-09-07T13:47:40;21.40;99.90
10431;DHT22;5262;59.958;17.726;2023-09-07T13:50:06;21.30;99.90
10431;DHT22;5262;59.958;17.726;2023-09-07T13:52:32;21.20;99.90
10431;DHT22;5262;59.958;17.726;2023-09-07T13:54:58;21.00;99.90
10431;DHT22;5262;59.958;17.726;2023-09-07T13:57:23;20.80;99.90
10431;DHT22;5262;59.958;17.726;2023-09-07T13:59:49;20.80;99.90
10431;DHT22;5262;59.958;17.726;2023-09-07T14:02:15;20.90;99.90
10431;DHT22;5262;59.958;17.726;2023-09-07T14:04:40;20.90;99.90
10431;DHT22;5262;59.958;17.726;2023-09-07T14:07:06;21.00;99.90
10431;DHT22;5262;59.958;17.726;2023-09-07T14:09:32;20.90;99.90
10431;DHT22;5262;59.958;17.726;2023-09-07T14:11:59;20.80;99.90
10431;DHT22;5262;59.958;17.726;2023-09-07T14:14:24;20.80;99.90
10431;DHT22;5262;59.958;17.726;2023-09-07T14:16:50;20.80;99.90
10431;DHT22;5262;59.958;17.726;2023-09-07T14:19:20;20.60;99.90
10431;DHT22;5262;59.958;17.726;2023-09-07T14:21:46;20.60;99.90
10431;DHT22;5262;59.958;17.726;2023-09-07T14:24:11;20.70;99.90
10431;DHT22;5262;59.958;17.726;2023-09-07T14:26:37;20.60;99.90
10431;DHT22;5262;59.958;17.726;2023-09-07T14:29:03;20.50;99.90
10431;DHT22;5262;59.958;17.726;2023-09-07T14:31:28;20.50;99.90
10431;DHT22;5262;59.958;17.726;2023-09-07T14:33:54;20.40;99.90
10431;DHT22;5262;59.958;17.726;2023-09-07T14:36:19;20.30;99.90
10431;DHT22;5262;59.958;17.726;2023-09-07T14:38:45;20.40;99.90
10431;DHT22;5262;59.958;17.726;2023-09-07T14:41:11;20.40;99.90
10431;DHT22;5262;59.958;17.726;2023-09-07T14:43:44;20.40;99.90
10431;DHT22;5262;59.958;17.726;2023-09-07T14:46:10;20.40;99.90
10431;DHT22;5262;59.958;17.726;2023-09-07T14:48:35;20.40;99.90
10431;DHT22;5262;59.958;17.726;2023-09-07T14:51:01;20.40;99.90
10431;DHT22;5262;59.958;17.726;2023-09-07T14:53:26;20.40;99.90
10431;DHT22;5262;59.958;17.726;2023-09-07T14:55:52;20.40;99.90
10431;DHT22;5262;59.958;17.726;2023-09-07T14:58:18;20.30;99.90
10431;DHT22;5262;59.958;17.726;2023-09-07T15:00:43;20.30;99.90
10431;DHT22;5262;59.958;17.726;2023-09-07T15:03:09;20.30;99.90
10431;DHT22;5262;59.958;17.726;2023-09-07T15:05:35;20.20;99.90
10431;DHT22;5262;59.958;17.726;2023-09-07T15:08:00;20.20;99.90
10431;DHT22;5262;59.958;17.726;2023-09-07T15:10:28;20.20;99.90
10431;DHT22;5262;59.958;17.726;2023-09-07T15:12:54;20.20;99.90
10431;DHT22;5262;59.958;17.726;2023-09-07T15:15:20;20.10;99.90
10431;DHT22;5262;59.958;17.726;2023-09-07T15:17:48;20.20;99.90
10431;DHT22;5262;59.958;17.726;2023-09-07T15:20:14;20.20;99.90
10431;DHT22;5262;59.958;17.726;2023-09-07T15:22:40;20.40;99.90
10431;DHT22;5262;59.958;17.726;2023-09-07T15:25:06;20.50;99.90
10431;DHT22;5262;59.958;17.726;2023-09-07T15:27:31;20.70;99.90
10431;DHT22;5262;59.958;17.726;2023-09-07T15:29:57;20.60;99.90